createdAt,value
2022-12-03T00:03:33.555Z,97983.28
2022-12-03T00:08:37.143Z,97976.38
2022-12-03T00:13:40.613Z,97986.78
2022-12-03T00:18:44.325Z,97975.69
2022-12-03T00:23:48.145Z,97968.53
2022-12-03T00:28:52.175Z,97981.50
2022-12-03T00:33:55.747Z,97977.69
2022-12-03T00:38:59.263Z,97971.94
2022-12-03T00:44:02.605Z,97969.91
2022-12-03T00:49:05.931Z,97965.72
2022-12-03T00:54:11.497Z,97963.84
2022-12-03T00:59:14.878Z,97961.97
2022-12-03T01:04:18.428Z,97962.09
2022-12-03T01:09:23.208Z,97967.34
2022-12-03T01:14:27.005Z,97968.59
2022-12-03T01:19:30.434Z,97973.84
2022-12-03T01:24:34.554Z,97976.19
2022-12-03T01:29:38.070Z,97974.06
2022-12-03T01:34:41.361Z,97975.69
2022-12-03T01:39:44.456Z,97964.47
2022-12-03T01:44:48.547Z,97965.59
2022-12-03T01:49:56.904Z,97968.88
2022-12-03T01:55:03.090Z,97952.13
2022-12-03T02:00:13.205Z,97955.44
2022-12-03T02:05:23.090Z,97959.97
2022-12-03T02:10:31.627Z,97964.78
2022-12-03T02:15:38.398Z,97955.53
2022-12-03T02:21:41.253Z,97955.78
2022-12-03T02:26:44.632Z,97959.78
2022-12-03T02:31:48.104Z,97962.94
2022-12-03T02:36:51.574Z,97956.53
2022-12-03T02:41:55.274Z,97956.53
2022-12-03T02:46:58.782Z,97962.22
2022-12-03T02:52:02.624Z,97959.06
2022-12-03T02:57:06.529Z,97954.72
2022-12-03T03:02:10.599Z,97946.31
2022-12-03T03:07:15.077Z,97958.50
2022-12-03T03:12:20.516Z,97958.31
2022-12-03T03:17:25.404Z,97952.84
2022-12-03T03:22:36.811Z,97965.72
2022-12-03T03:27:41.312Z,97973.44
2022-12-03T03:32:46.108Z,97967.00
2022-12-03T03:37:51.244Z,97972.13
2022-12-03T03:42:55.967Z,97972.75
2022-12-03T03:48:00.871Z,97974.38
2022-12-03T03:53:05.396Z,97971.91
2022-12-03T03:58:09.352Z,97978.59
2022-12-03T04:03:13.120Z,97981.75
2022-12-03T04:08:17.890Z,97992.78
2022-12-03T04:13:21.250Z,97990.09
2022-12-03T04:18:24.497Z,97991.97
2022-12-03T04:23:30.840Z,97994.72
2022-12-03T04:28:34.400Z,97994.38
2022-12-03T04:33:39.013Z,98002.22
2022-12-03T04:38:42.499Z,97997.28
2022-12-03T04:43:45.865Z,98002.69
2022-12-03T04:48:49.637Z,98005.72
2022-12-03T04:53:54.693Z,98010.88
2022-12-03T04:58:58.113Z,98025.75
2022-12-03T05:04:01.477Z,98024.19
2022-12-03T05:09:05.998Z,98025.38
2022-12-03T05:14:10.048Z,98030.38
2022-12-03T05:19:13.726Z,98034.81
2022-12-03T05:24:17.179Z,98044.63
2022-12-03T05:29:20.629Z,98040.66
2022-12-03T05:34:26.384Z,98036.41
2022-12-03T05:39:29.970Z,98041.31
2022-12-03T05:44:35.058Z,98044.03
2022-12-03T05:49:38.720Z,98052.63
2022-12-03T05:54:42.500Z,98060.25
2022-12-03T05:59:45.874Z,98054.84
2022-12-03T06:04:49.861Z,98067.69
2022-12-03T06:09:54.423Z,98066.41
2022-12-03T06:14:58.713Z,98068.22
2022-12-03T06:20:02.433Z,98053.97
2022-12-03T06:25:07.564Z,98077.59
2022-12-03T06:30:13.423Z,98070.88
2022-12-03T06:35:16.984Z,98072.59
2022-12-03T06:40:20.355Z,98078.53
2022-12-03T06:45:23.665Z,98076.09
2022-12-03T06:50:27.561Z,98089.69
2022-12-03T06:55:32.349Z,98089.31
2022-12-03T07:00:35.729Z,98078.81
2022-12-03T07:05:39.084Z,98084.91
2022-12-03T07:10:42.323Z,98077.22
2022-12-03T07:15:45.673Z,98071.16
2022-12-03T07:20:49.288Z,98077.88
2022-12-03T07:25:52.971Z,98072.84
2022-12-03T07:30:56.346Z,98063.88
2022-12-03T07:35:59.717Z,98062.00
2022-12-03T07:41:03.144Z,98059.38
2022-12-03T07:46:06.658Z,98052.66
2022-12-03T07:51:14.217Z,98041.16
2022-12-03T07:56:18.967Z,98039.28
2022-12-03T08:01:23.796Z,98046.25
2022-12-03T08:06:27.209Z,98039.16
2022-12-03T08:11:30.730Z,98035.91
2022-12-03T08:16:37.464Z,98043.75
2022-12-03T08:21:43.381Z,98031.16
2022-12-03T08:26:49.343Z,98019.28
2022-12-03T08:31:54.587Z,98021.38
2022-12-03T08:37:06.367Z,98016.91
2022-12-03T08:42:25.672Z,98011.16
2022-12-03T08:47:30.008Z,98020.41
2022-12-03T08:52:34.731Z,98006.78
2022-12-03T08:57:38.346Z,98001.59
2022-12-03T09:02:48.090Z,97998.78
2022-12-03T09:07:51.775Z,97991.41
2022-12-03T09:12:55.401Z,97990.81
2022-12-03T09:18:01.244Z,97983.31
2022-12-03T09:23:06.173Z,97978.16
2022-12-03T09:28:09.724Z,97973.97
2022-12-03T09:33:13.242Z,97951.47
2022-12-03T09:38:17.073Z,97943.53
2022-12-03T09:43:21.081Z,97930.91
2022-12-03T09:48:24.533Z,97933.09
2022-12-03T09:53:28.647Z,97928.72
2022-12-03T09:58:34.935Z,97918.91
2022-12-03T10:03:43.501Z,97912.41
2022-12-03T10:08:53.810Z,97911.63
2022-12-03T10:13:58.834Z,97907.38
2022-12-03T10:19:02.499Z,97900.66
2022-12-03T10:24:29.038Z,97900.66
2022-12-03T10:29:35.727Z,97899.81
2022-12-03T10:34:42.212Z,97904.97
2022-12-03T10:39:57.584Z,97890.84
2022-12-03T10:45:20.214Z,97881.59
2022-12-03T10:50:27.494Z,97878.06
2022-12-03T10:55:44.574Z,97879.44
2022-12-03T11:00:48.760Z,97875.59
2022-12-03T11:05:53.711Z,97882.09
2022-12-03T11:11:21.841Z,97876.63
2022-12-03T11:16:45.785Z,97881.50
2022-12-03T11:22:04.136Z,97878.72
2022-12-03T11:27:17.335Z,97875.72
2022-12-03T11:32:39.374Z,97868.63
2022-12-03T11:37:43.147Z,97868.63
2022-12-03T11:42:48.605Z,97864.63
2022-12-03T11:47:58.550Z,97857.41
2022-12-03T11:53:13.206Z,97849.03
2022-12-03T11:58:18.549Z,97859.09
2022-12-03T12:03:32.889Z,97861.84
2022-12-03T12:08:52.296Z,97870.50
2022-12-03T12:14:15.040Z,97869.69
2022-12-03T12:19:35.813Z,97874.03
2022-12-03T12:24:39.460Z,97876.47
2022-12-03T12:29:45.205Z,97875.09
2022-12-03T12:34:54.629Z,97870.22
2022-12-03T12:39:58.825Z,97869.66
2022-12-03T12:45:16.682Z,97872.03
2022-12-03T12:50:20.258Z,97869.25
2022-12-03T12:55:24.641Z,97875.69
2022-12-03T13:00:28.283Z,97875.97
2022-12-03T13:05:51.532Z,97894.81
2022-12-03T13:10:57.727Z,97888.44
2022-12-03T13:16:23.419Z,97889.16
2022-12-03T13:21:43.329Z,97891.53
2022-12-03T13:26:46.745Z,97902.59
2022-12-03T13:32:02.562Z,97897.66
2022-12-03T13:37:27.359Z,97900.34
2022-12-03T13:42:34.048Z,97898.94
2022-12-03T13:47:39.067Z,97902.63
2022-12-03T13:52:42.530Z,97902.34
2022-12-03T13:57:45.865Z,97907.69
2022-12-03T14:02:49.424Z,97905.50
2022-12-03T14:07:52.889Z,97905.19
2022-12-03T14:12:57.465Z,97907.53
2022-12-03T14:18:00.924Z,97906.38
2022-12-03T14:23:04.296Z,97916.00
2022-12-03T14:28:07.614Z,97919.41
2022-12-03T14:33:11.195Z,97915.78
2022-12-03T14:38:15.976Z,97918.38
2022-12-03T14:43:19.323Z,97921.47
2022-12-03T14:48:23.400Z,97934.59
2022-12-03T14:53:27.647Z,97937.28
2022-12-03T14:58:32.240Z,97945.06
2022-12-03T15:03:35.690Z,97946.13
2022-12-03T15:08:39.245Z,97930.69
2022-12-03T15:13:42.825Z,97934.72
2022-12-03T15:18:46.232Z,97930.84
2022-12-03T15:23:49.655Z,97956.81
2022-12-03T15:28:53.440Z,97956.47
2022-12-03T15:33:57.224Z,97960.50
2022-12-03T15:39:00.894Z,97967.19
2022-12-03T15:44:06.036Z,97975.81
2022-12-03T15:49:10.060Z,97982.75
2022-12-03T15:54:13.671Z,97981.38
2022-12-03T15:59:17.826Z,97980.47
2022-12-03T16:04:21.186Z,97992.91
2022-12-03T16:09:27.482Z,97994.44
2022-12-03T16:14:31.427Z,98006.56
2022-12-03T16:19:34.989Z,98002.97
2022-12-03T16:24:39.991Z,97997.22
2022-12-03T16:29:43.487Z,98002.31
2022-12-03T16:34:46.964Z,98004.66
2022-12-03T16:39:50.676Z,98012.19
2022-12-03T16:44:55.011Z,98018.06
2022-12-03T16:49:58.341Z,98019.88
2022-12-03T16:55:02.352Z,98024.94
2022-12-03T17:00:07.104Z,98021.88
2022-12-03T17:05:10.826Z,98018.88
2022-12-03T17:10:14.498Z,98023.94
2022-12-03T17:15:17.947Z,98023.56
2022-12-03T17:20:21.421Z,98028.38
2022-12-03T17:25:24.794Z,98017.75
2022-12-03T17:30:29.681Z,98019.06
2022-12-03T17:35:34.396Z,98011.44
2022-12-03T17:40:37.844Z,98008.19
2022-12-03T17:45:41.419Z,98015.44
2022-12-03T17:50:45.025Z,98014.72
2022-12-03T17:55:48.440Z,98021.50
2022-12-03T18:00:53.256Z,98026.66
2022-12-03T18:05:59.770Z,98025.69
2022-12-03T18:11:04.110Z,98027.53
2022-12-03T18:16:07.859Z,98019.22
2022-12-03T18:21:12.836Z,98021.28
2022-12-03T18:26:17.436Z,98007.53
2022-12-03T18:31:22.869Z,98022.41
2022-12-03T18:36:33.065Z,98032.06
2022-12-03T18:41:36.556Z,98031.16
2022-12-03T18:46:55.612Z,98033.63
2022-12-03T18:51:59.865Z,98025.00
2022-12-03T18:57:03.614Z,98021.50
2022-12-03T19:02:08.153Z,98026.34
2022-12-03T19:07:12.518Z,98021.44
2022-12-03T19:12:15.915Z,98034.09
2022-12-03T19:17:21.521Z,98041.38
2022-12-03T19:22:25.637Z,98047.56
2022-12-03T19:27:33.128Z,98051.94
2022-12-03T19:32:36.782Z,98051.59
2022-12-03T19:37:40.351Z,98049.13
2022-12-03T19:42:44.361Z,98048.31
2022-12-03T19:47:48.510Z,98039.97
2022-12-03T19:52:52.349Z,98047.16
2022-12-03T19:57:56.802Z,98042.50
2022-12-03T20:03:01.423Z,98041.38
2022-12-03T20:08:06.966Z,98042.75
2022-12-03T20:13:10.341Z,98040.75
2022-12-03T20:18:13.736Z,98034.81
2022-12-03T20:23:18.307Z,98038.66
2022-12-03T20:28:22.975Z,98051.66
2022-12-03T20:33:27.135Z,98047.31
2022-12-03T20:38:31.411Z,98037.84
2022-12-03T20:43:35.811Z,98034.00
2022-12-03T20:48:40.140Z,98033.91
2022-12-03T20:53:45.292Z,98032.22
2022-12-03T20:58:49.694Z,98028.97
2022-12-03T21:03:57.322Z,98025.69
2022-12-03T21:09:01.237Z,98018.66
2022-12-03T21:14:05.458Z,98018.09
2022-12-03T21:19:10.077Z,98025.47
2022-12-03T21:24:13.547Z,98015.72
2022-12-03T21:29:17.152Z,98008.94
2022-12-03T21:34:20.585Z,97999.94
2022-12-03T21:39:24.248Z,97993.84
2022-12-03T21:44:27.793Z,97999.78
2022-12-03T21:49:31.006Z,97989.97
2022-12-03T21:54:34.827Z,97999.47
2022-12-03T21:59:38.271Z,97982.38
2022-12-03T22:04:42.556Z,97993.47
2022-12-03T22:09:46.048Z,97992.41
2022-12-03T22:14:49.543Z,97992.34
2022-12-03T22:19:53.588Z,97984.16
2022-12-03T22:24:57.440Z,97989.56
2022-12-03T22:30:01.181Z,98000.00
2022-12-03T22:35:05.808Z,97992.06
2022-12-03T22:40:10.272Z,97987.97
2022-12-03T22:45:13.720Z,97989.38
2022-12-03T22:50:17.143Z,97980.47
2022-12-03T22:55:20.873Z,97978.13
2022-12-03T23:00:32.404Z,97967.34
2022-12-03T23:05:37.902Z,97975.41
2022-12-03T23:10:44.419Z,97970.75
2022-12-03T23:15:50.397Z,97972.06
2022-12-03T23:20:56.211Z,97973.34
2022-12-03T23:26:02.007Z,97970.56
2022-12-03T23:31:06.508Z,97978.88
2022-12-03T23:36:10.585Z,97979.13
2022-12-03T23:41:19.424Z,97988.50
2022-12-03T23:46:25.719Z,97981.47
2022-12-03T23:51:29.167Z,97985.47
2022-12-03T23:56:32.907Z,97981.97
